sensor_id;sensor_type;location;lat;lon;timestamp;temperature;humidity
6333;DHT22;3199;49.102;8.856;2023-10-19T00:00:34;12.10;99.90
6333;DHT22;3199;49.102;8.856;2023-10-19T00:03:02;12.10;99.90
6333;DHT22;3199;49.102;8.856;2023-10-19T00:05:32;12.10;99.90
6333;DHT22;3199;49.102;8.856;2023-10-19T00:08:03;12.00;99.90
6333;DHT22;3199;49.102;8.856;2023-10-19T00:10:42;12.10;99.90
6333;DHT22;3199;49.102;8.856;2023-10-19T00:13:12;12.10;99.90
6333;DHT22;3199;49.102;8.856;2023-10-19T00:15:39;12.10;99.90
6333;DHT22;3199;49.102;8.856;2023-10-19T00:18:09;12.10;99.90
6333;DHT22;3199;49.102;8.856;2023-10-19T00:20:45;12.20;99.90
6333;DHT22;3199;49.102;8.856;2023-10-19T00:23:13;12.20;99.90
6333;DHT22;3199;49.102;8.856;2023-10-19T00:25:39;12.20;99.90
6333;DHT22;3199;49.102;8.856;2023-10-19T00:28:09;12.30;99.90
6333;DHT22;3199;49.102;8.856;2023-10-19T00:30:40;12.30;99.90
6333;DHT22;3199;49.102;8.856;2023-10-19T00:33:08;12.30;99.90
6333;DHT22;3199;49.102;8.856;2023-10-19T00:35:42;12.40;99.90
6333;DHT22;3199;49.102;8.856;2023-10-19T00:38:23;12.40;99.90
6333;DHT22;3199;49.102;8.856;2023-10-19T00:41:01;12.40;99.90
6333;DHT22;3199;49.102;8.856;2023-10-19T00:43:43;12.30;99.90
6333;DHT22;3199;49.102;8.856;2023-10-19T00:46:16;12.20;99.90
6333;DHT22;3199;49.102;8.856;2023-10-19T00:48:55;12.10;99.90
6333;DHT22;3199;49.102;8.856;2023-10-19T00:51:25;12.10;99.90
6333;DHT22;3199;49.102;8.856;2023-10-19T00:53:55;12.10;99.90
6333;DHT22;3199;49.102;8.856;2023-10-19T00:56:23;12.10;99.90
6333;DHT22;3199;49.102;8.856;2023-10-19T00:58:50;12.00;99.90
6333;DHT22;3199;49.102;8.856;2023-10-19T01:01:28;12.00;99.90
6333;DHT22;3199;49.102;8.856;2023-10-19T01:03:55;12.00;99.90
6333;DHT22;3199;49.102;8.856;2023-10-19T01:06:24;11.90;99.90
6333;DHT22;3199;49.102;8.856;2023-10-19T01:08:51;11.90;99.90
6333;DHT22;3199;49.102;8.856;2023-10-19T01:11:18;12.00;99.90
6333;DHT22;3199;49.102;8.856;2023-10-19T01:13:47;12.00;99.90
6333;DHT22;3199;49.102;8.856;2023-10-19T01:16:17;12.00;99.90
6333;DHT22;3199;49.102;8.856;2023-10-19T01:18:49;12.00;99.90
6333;DHT22;3199;49.102;8.856;2023-10-19T01:21:22;12.10;99.90
6333;DHT22;3199;49.102;8.856;2023-10-19T01:23:52;12.10;99.90
6333;DHT22;3199;49.102;8.856;2023-10-19T01:26:19;12.10;99.90
6333;DHT22;3199;49.102;8.856;2023-10-19T01:28:52;12.10;99.90
6333;DHT22;3199;49.102;8.856;2023-10-19T01:31:20;12.10;99.90
6333;DHT22;3199;49.102;8.856;2023-10-19T01:33:59;12.10;99.90
6333;DHT22;3199;49.102;8.856;2023-10-19T01:36:27;12.10;99.90
6333;DHT22;3199;49.102;8.856;2023-10-19T01:38:57;12.10;99.90
6333;DHT22;3199;49.102;8.856;2023-10-19T01:41:35;12.10;99.90
6333;DHT22;3199;49.102;8.856;2023-10-19T01:44:01;12.10;99.90
6333;DHT22;3199;49.102;8.856;2023-10-19T01:46:30;12.10;99.90
6333;DHT22;3199;49.102;8.856;2023-10-19T01:48:59;12.10;99.90
6333;DHT22;3199;49.102;8.856;2023-10-19T01:51:26;12.00;99.90
6333;DHT22;3199;49.102;8.856;2023-10-19T01:53:54;12.00;99.90
6333;DHT22;3199;49.102;8.856;2023-10-19T01:56:26;12.00;99.90
6333;DHT22;3199;49.102;8.856;2023-10-19T01:58:51;12.00;99.90
6333;DHT22;3199;49.102;8.856;2023-10-19T02:01:18;12.00;99.90
6333;DHT22;3199;49.102;8.856;2023-10-19T02:03:53;12.00;99.90
6333;DHT22;3199;49.102;8.856;2023-10-19T02:06:25;12.00;99.90
6333;DHT22;3199;49.102;8.856;2023-10-19T02:08:59;12.00;99.90
6333;DHT22;3199;49.102;8.856;2023-10-19T02:11:44;12.10;99.90
6333;DHT22;3199;49.102;8.856;2023-10-19T02:14:13;12.00;99.90
6333;DHT22;3199;49.102;8.856;2023-10-19T02:16:44;12.10;99.90
6333;DHT22;3199;49.102;8.856;2023-10-19T02:19:12;12.10;99.90
6333;DHT22;3199;49.102;8.856;2023-10-19T02:21:38;12.10;99.90
6333;DHT22;3199;49.102;8.856;2023-10-19T02:24:10;12.10;99.90
6333;DHT22;3199;49.102;8.856;2023-10-19T02:26:43;12.10;99.90
6333;DHT22;3199;49.102;8.856;2023-10-19T02:29:09;12.10;99.90
6333;DHT22;3199;49.102;8.856;2023-10-19T02:31:36;12.10;99.90
6333;DHT22;3199;49.102;8.856;2023-10-19T02:34:03;12.10;99.90
6333;DHT22;3199;49.102;8.856;2023-10-19T02:36:30;12.10;99.90
6333;DHT22;3199;49.102;8.856;2023-10-19T02:38:57;12.10;99.90
6333;DHT22;3199;49.102;8.856;2023-10-19T02:41:42;12.10;99.90
6333;DHT22;3199;49.102;8.856;2023-10-19T02:44:18;12.10;99.90
6333;DHT22;3199;49.102;8.856;2023-10-19T02:46:47;12.10;99.90
6333;DHT22;3199;49.102;8.856;2023-10-19T02:49:17;12.10;99.90
6333;DHT22;3199;49.102;8.856;2023-10-19T02:51:47;12.10;99.90
6333;DHT22;3199;49.102;8.856;2023-10-19T02:54:14;12.10;99.90
6333;DHT22;3199;49.102;8.856;2023-10-19T02:56:49;12.00;99.90
6333;DHT22;3199;49.102;8.856;2023-10-19T02:59:19;12.00;99.90
6333;DHT22;3199;49.102;8.856;2023-10-19T03:01:52;12.00;99.90
6333;DHT22;3199;49.102;8.856;2023-10-19T03:04:19;12.00;99.90
6333;DHT22;3199;49.102;8.856;2023-10-19T03:06:45;12.00;99.90
6333;DHT22;3199;49.102;8.856;2023-10-19T03:09:11;12.00;99.90
6333;DHT22;3199;49.102;8.856;2023-10-19T03:11:41;12.00;99.90
6333;DHT22;3199;49.102;8.856;2023-10-19T03:14:08;12.00;99.90
6333;DHT22;3199;49.102;8.856;2023-10-19T03:16:37;12.00;99.90
6333;DHT22;3199;49.102;8.856;2023-10-19T03:19:03;12.00;99.90
6333;DHT22;3199;49.102;8.856;2023-10-19T03:21:30;12.00;99.90
6333;DHT22;3199;49.102;8.856;2023-10-19T03:23:59;12.00;99.90
6333;DHT22;3199;49.102;8.856;2023-10-19T03:26:37;12.00;99.90
6333;DHT22;3199;49.102;8.856;2023-10-19T03:29:05;12.00;99.90
6333;DHT22;3199;49.102;8.856;2023-10-19T03:31:38;12.10;99.90
6333;DHT22;3199;49.102;8.856;2023-10-19T03:34:14;12.10;99.90
6333;DHT22;3199;49.102;8.856;2023-10-19T03:36:42;12.10;99.90
6333;DHT22;3199;49.102;8.856;2023-10-19T03:39:08;12.10;99.90
6333;DHT22;3199;49.102;8.856;2023-10-19T03:41:43;12.10;99.90
6333;DHT22;3199;49.102;8.856;2023-10-19T03:44:12;12.10;99.90
6333;DHT22;3199;49.102;8.856;2023-10-19T03:46:44;12.10;99.90
6333;DHT22;3199;49.102;8.856;2023-10-19T03:49:22;12.10;99.90
6333;DHT22;3199;49.102;8.856;2023-10-19T03:51:48;12.10;99.90
6333;DHT22;3199;49.102;8.856;2023-10-19T03:54:34;12.10;99.90
6333;DHT22;3199;49.102;8.856;2023-10-19T03:57:04;12.10;99.90
6333;DHT22;3199;49.102;8.856;2023-10-19T03:59:32;12.10;99.90
6333;DHT22;3199;49.102;8.856;2023-10-19T04:02:00;12.10;99.90
6333;DHT22;3199;49.102;8.856;2023-10-19T04:04:26;12.10;99.90
6333;DHT22;3199;49.102;8.856;2023-10-19T04:06:55;12.10;99.90
6333;DHT22;3199;49.102;8.856;2023-10-19T04:09:24;12.10;99.90
6333;DHT22;3199;49.102;8.856;2023-10-19T04:11:55;12.10;99.90
6333;DHT22;3199;49.102;8.856;2023-10-19T04:14:21;12.10;99.90
6333;DHT22;3199;49.102;8.856;2023-10-19T04:16:47;12.10;99.90
6333;DHT22;3199;49.102;8.856;2023-10-19T04:19:14;12.10;99.90
6333;DHT22;3199;49.102;8.856;2023-10-19T04:21:41;12.10;99.90
6333;DHT22;3199;49.102;8.856;2023-10-19T04:24:12;12.10;99.90
6333;DHT22;3199;49.102;8.856;2023-10-19T04:26:37;12.10;99.90
6333;DHT22;3199;49.102;8.856;2023-10-19T04:29:04;12.00;99.90
6333;DHT22;3199;49.102;8.856;2023-10-19T04:31:39;12.10;99.90
6333;DHT22;3199;49.102;8.856;2023-10-19T04:34:14;12.00;99.90
6333;DHT22;3199;49.102;8.856;2023-10-19T04:36:40;12.00;99.90
6333;DHT22;3199;49.102;8.856;2023-10-19T04:39:05;12.00;99.90
6333;DHT22;3199;49.102;8.856;2023-10-19T04:41:36;12.00;99.90
6333;DHT22;3199;49.102;8.856;2023-10-19T04:44:02;12.00;99.90
6333;DHT22;3199;49.102;8.856;2023-10-19T04:46:28;12.00;99.90
6333;DHT22;3199;49.102;8.856;2023-10-19T04:48:54;11.90;99.90
6333;DHT22;3199;49.102;8.856;2023-10-19T04:51:20;11.90;99.90
6333;DHT22;3199;49.102;8.856;2023-10-19T04:53:46;11.90;99.90
6333;DHT22;3199;49.102;8.856;2023-10-19T04:56:12;11.90;99.90
6333;DHT22;3199;49.102;8.856;2023-10-19T04:58:38;11.90;99.90
6333;DHT22;3199;49.102;8.856;2023-10-19T05:01:04;11.90;99.90
6333;DHT22;3199;49.102;8.856;2023-10-19T05:03:30;11.80;99.90
6333;DHT22;3199;49.102;8.856;2023-10-19T05:05:56;11.80;99.90
6333;DHT22;3199;49.102;8.856;2023-10-19T05:08:23;11.80;99.90
6333;DHT22;3199;49.102;8.856;2023-10-19T05:10:54;11.80;99.90
6333;DHT22;3199;49.102;8.856;2023-10-19T05:13:21;11.80;99.90
6333;DHT22;3199;49.102;8.856;2023-10-19T05:15:46;11.70;99.90
6333;DHT22;3199;49.102;8.856;2023-10-19T05:18:12;11.70;99.90
6333;DHT22;3199;49.102;8.856;2023-10-19T05:20:38;11.70;99.90
6333;DHT22;3199;49.102;8.856;2023-10-19T05:23:06;11.60;99.90
6333;DHT22;3199;49.102;8.856;2023-10-19T05:25:34;11.60;99.90
6333;DHT22;3199;49.102;8.856;2023-10-19T05:27:59;11.50;99.90
6333;DHT22;3199;49.102;8.856;2023-10-19T05:30:26;11.50;99.90
6333;DHT22;3199;49.102;8.856;2023-10-19T05:32:51;11.50;99.90
6333;DHT22;3199;49.102;8.856;2023-10-19T05:35:17;11.50;99.90
6333;DHT22;3199;49.102;8.856;2023-10-19T05:37:49;11.40;99.90
6333;DHT22;3199;49.102;8.856;2023-10-19T05:40:14;11.40;99.90
6333;DHT22;3199;49.102;8.856;2023-10-19T05:42:41;11.40;99.90
6333;DHT22;3199;49.102;8.856;2023-10-19T05:45:07;11.30;99.90
6333;DHT22;3199;49.102;8.856;2023-10-19T05:47:32;11.30;99.90
6333;DHT22;3199;49.102;8.856;2023-10-19T05:49:58;11.30;99.90
6333;DHT22;3199;49.102;8.856;2023-10-19T05:52:23;11.30;99.90
6333;DHT22;3199;49.102;8.856;2023-10-19T05:54:49;11.20;99.90
6333;DHT22;3199;49.102;8.856;2023-10-19T05:57:19;11.20;99.90
6333;DHT22;3199;49.102;8.856;2023-10-19T05:59:44;11.20;99.90
6333;DHT22;3199;49.102;8.856;2023-10-19T06:02:10;11.20;99.90
6333;DHT22;3199;49.102;8.856;2023-10-19T06:04:35;11.20;99.90
6333;DHT22;3199;49.102;8.856;2023-10-19T06:07:01;11.20;99.90
6333;DHT22;3199;49.102;8.856;2023-10-19T06:09:27;11.20;99.90
6333;DHT22;3199;49.102;8.856;2023-10-19T06:11:55;11.20;99.90
6333;DHT22;3199;49.102;8.856;2023-10-19T06:14:21;11.20;99.90
6333;DHT22;3199;49.102;8.856;2023-10-19T06:16:46;11.20;99.90
6333;DHT22;3199;49.102;8.856;2023-10-19T06:19:12;11.30;99.90
6333;DHT22;3199;49.102;8.856;2023-10-19T06:21:37;11.30;99.90
6333;DHT22;3199;49.102;8.856;2023-10-19T06:24:03;11.30;99.90
6333;DHT22;3199;49.102;8.856;2023-10-19T06:26:29;11.30;99.90
6333;DHT22;3199;49.102;8.856;2023-10-19T06:28:54;11.30;99.90
6333;DHT22;3199;49.102;8.856;2023-10-19T06:31:27;11.30;99.90
6333;DHT22;3199;49.102;8.856;2023-10-19T06:33:53;11.30;99.90
6333;DHT22;3199;49.102;8.856;2023-10-19T06:36:19;11.40;99.90
6333;DHT22;3199;49.102;8.856;2023-10-19T06:38:45;11.40;99.90
6333;DHT22;3199;49.102;8.856;2023-10-19T06:41:14;11.50;99.90
6333;DHT22;3199;49.102;8.856;2023-10-19T06:43:40;11.60;99.90
6333;DHT22;3199;49.102;8.856;2023-10-19T06:46:06;11.70;99.90
6333;DHT22;3199;49.102;8.856;2023-10-19T06:48:32;11.80;99.90
6333;DHT22;3199;49.102;8.856;2023-10-19T06:50:58;11.90;99.90
6333;DHT22;3199;49.102;8.856;2023-10-19T06:53:23;11.90;99.90
6333;DHT22;3199;49.102;8.856;2023-10-19T06:55:49;12.10;99.90
6333;DHT22;3199;49.102;8.856;2023-10-19T06:58:15;12.10;99.90
6333;DHT22;3199;49.102;8.856;2023-10-19T07:00:40;12.10;99.90
6333;DHT22;3199;49.102;8.856;2023-10-19T07:03:08;12.10;99.90
6333;DHT22;3199;49.102;8.856;2023-10-19T07:05:34;12.20;99.90
6333;DHT22;3199;49.102;8.856;2023-10-19T07:08:00;12.20;99.90
6333;DHT22;3199;49.102;8.856;2023-10-19T07:10:27;12.30;99.90
6333;DHT22;3199;49.102;8.856;2023-10-19T07:12:54;12.30;99.90
6333;DHT22;3199;49.102;8.856;2023-10-19T07:15:21;12.30;99.90
6333;DHT22;3199;49.102;8.856;2023-10-19T07:17:51;12.30;99.90
6333;DHT22;3199;49.102;8.856;2023-10-19T07:20:20;12.40;99.90
6333;DHT22;3199;49.102;8.856;2023-10-19T07:23:02;12.40;99.90
6333;DHT22;3199;49.102;8.856;2023-10-19T07:25:48;12.40;99.90
6333;DHT22;3199;49.102;8.856;2023-10-19T07:28:18;12.50;99.90
6333;DHT22;3199;49.102;8.856;2023-10-19T07:30:45;12.50;99.90
6333;DHT22;3199;49.102;8.856;2023-10-19T07:33:12;12.50;99.90
6333;DHT22;3199;49.102;8.856;2023-10-19T07:35:44;12.60;99.90
6333;DHT22;3199;49.102;8.856;2023-10-19T07:38:13;12.60;99.90
6333;DHT22;3199;49.102;8.856;2023-10-19T07:40:39;12.70;99.90
6333;DHT22;3199;49.102;8.856;2023-10-19T07:43:05;12.70;99.90
6333;DHT22;3199;49.102;8.856;2023-10-19T07:45:31;12.70;99.90
6333;DHT22;3199;49.102;8.856;2023-10-19T07:47:57;12.70;99.90
6333;DHT22;3199;49.102;8.856;2023-10-19T07:50:23;12.80;99.90
6333;DHT22;3199;49.102;8.856;2023-10-19T07:52:53;12.80;99.90
6333;DHT22;3199;49.102;8.856;2023-10-19T07:55:21;12.90;99.90
6333;DHT22;3199;49.102;8.856;2023-10-19T07:57:49;12.90;99.90
6333;DHT22;3199;49.102;8.856;2023-10-19T08:00:16;13.00;99.90
6333;DHT22;3199;49.102;8.856;2023-10-19T08:02:43;13.10;99.90
6333;DHT22;3199;49.102;8.856;2023-10-19T08:05:12;13.10;99.90
6333;DHT22;3199;49.102;8.856;2023-10-19T08:07:39;13.20;99.90
6333;DHT22;3199;49.102;8.856;2023-10-19T08:10:15;13.40;99.90
6333;DHT22;3199;49.102;8.856;2023-10-19T08:12:42;13.50;99.90
6333;DHT22;3199;49.102;8.856;2023-10-19T08:15:09;13.70;99.90
6333;DHT22;3199;49.102;8.856;2023-10-19T08:17:42;13.90;99.90
6333;DHT22;3199;49.102;8.856;2023-10-19T08:20:10;14.10;99.90
6333;DHT22;3199;49.102;8.856;2023-10-19T08:22:42;14.40;99.90
6333;DHT22;3199;49.102;8.856;2023-10-19T08:25:08;14.60;99.90
6333;DHT22;3199;49.102;8.856;2023-10-19T08:27:40;14.70;99.90
6333;DHT22;3199;49.102;8.856;2023-10-19T08:30:10;14.80;99.90
6333;DHT22;3199;49.102;8.856;2023-10-19T08:32:36;15.00;99.90
6333;DHT22;3199;49.102;8.856;2023-10-19T08:35:02;15.00;99.90
6333;DHT22;3199;49.102;8.856;2023-10-19T08:37:28;15.10;99.90
6333;DHT22;3199;49.102;8.856;2023-10-19T08:39:54;15.20;99.90
6333;DHT22;3199;49.102;8.856;2023-10-19T08:42:19;15.40;99.90
6333;DHT22;3199;49.102;8.856;2023-10-19T08:44:45;15.50;99.90
6333;DHT22;3199;49.102;8.856;2023-10-19T08:47:11;15.70;99.90
6333;DHT22;3199;49.102;8.856;2023-10-19T08:49:37;15.90;99.90
6333;DHT22;3199;49.102;8.856;2023-10-19T08:52:03;16.10;99.90
6333;DHT22;3199;49.102;8.856;2023-10-19T08:54:30;16.30;99.90
6333;DHT22;3199;49.102;8.856;2023-10-19T08:56:57;16.50;99.90
6333;DHT22;3199;49.102;8.856;2023-10-19T08:59:25;16.70;99.90
6333;DHT22;3199;49.102;8.856;2023-10-19T09:01:50;17.00;99.90
6333;DHT22;3199;49.102;8.856;2023-10-19T09:04:16;17.40;99.90
6333;DHT22;3199;49.102;8.856;2023-10-19T09:06:42;17.60;99.90
6333;DHT22;3199;49.102;8.856;2023-10-19T09:09:09;17.80;99.90
6333;DHT22;3199;49.102;8.856;2023-10-19T09:11:35;17.90;99.90
6333;DHT22;3199;49.102;8.856;2023-10-19T09:14:01;18.00;99.90
6333;DHT22;3199;49.102;8.856;2023-10-19T09:16:29;18.10;99.90
6333;DHT22;3199;49.102;8.856;2023-10-19T09:18:57;18.30;99.90
6333;DHT22;3199;49.102;8.856;2023-10-19T09:21:23;18.50;99.90
6333;DHT22;3199;49.102;8.856;2023-10-19T09:23:52;18.80;99.90
6333;DHT22;3199;49.102;8.856;2023-10-19T09:26:18;19.00;99.90
6333;DHT22;3199;49.102;8.856;2023-10-19T09:28:51;19.10;99.90
6333;DHT22;3199;49.102;8.856;2023-10-19T09:31:18;19.30;99.90
6333;DHT22;3199;49.102;8.856;2023-10-19T09:33:46;19.40;99.90
6333;DHT22;3199;49.102;8.856;2023-10-19T09:36:13;19.50;99.90
6333;DHT22;3199;49.102;8.856;2023-10-19T09:38:49;19.50;99.90
6333;DHT22;3199;49.102;8.856;2023-10-19T09:41:19;19.70;99.90
6333;DHT22;3199;49.102;8.856;2023-10-19T09:43:50;19.80;99.90
6333;DHT22;3199;49.102;8.856;2023-10-19T09:46:24;19.90;99.90
6333;DHT22;3199;49.102;8.856;2023-10-19T09:48:50;20.00;99.90
6333;DHT22;3199;49.102;8.856;2023-10-19T09:51:18;20.10;99.90
6333;DHT22;3199;49.102;8.856;2023-10-19T09:53:48;20.20;99.90
6333;DHT22;3199;49.102;8.856;2023-10-19T09:56:24;20.20;99.90
6333;DHT22;3199;49.102;8.856;2023-10-19T09:58:55;20.30;99.90
6333;DHT22;3199;49.102;8.856;2023-10-19T10:01:23;20.50;99.90
6333;DHT22;3199;49.102;8.856;2023-10-19T10:03:50;20.60;99.90
6333;DHT22;3199;49.102;8.856;2023-10-19T10:06:30;20.80;99.90
6333;DHT22;3199;49.102;8.856;2023-10-19T10:09:05;20.90;99.90
6333;DHT22;3199;49.102;8.856;2023-10-19T10:11:37;20.90;99.90
6333;DHT22;3199;49.102;8.856;2023-10-19T10:14:24;21.00;99.90
6333;DHT22;3199;49.102;8.856;2023-10-19T10:17:02;20.90;99.90
6333;DHT22;3199;49.102;8.856;2023-10-19T10:19:28;20.80;99.90
6333;DHT22;3199;49.102;8.856;2023-10-19T10:22:04;20.70;99.90
6333;DHT22;3199;49.102;8.856;2023-10-19T10:24:42;20.70;99.90
6333;DHT22;3199;49.102;8.856;2023-10-19T10:27:08;20.70;99.90
6333;DHT22;3199;49.102;8.856;2023-10-19T10:29:35;20.60;99.90
6333;DHT22;3199;49.102;8.856;2023-10-19T10:32:01;20.60;99.90
6333;DHT22;3199;49.102;8.856;2023-10-19T10:37:00;20.60;99.90
6333;DHT22;3199;49.102;8.856;2023-10-19T10:39:30;20.50;99.90
6333;DHT22;3199;49.102;8.856;2023-10-19T10:42:01;20.50;99.90
6333;DHT22;3199;49.102;8.856;2023-10-19T10:44:49;20.50;99.90
6333;DHT22;3199;49.102;8.856;2023-10-19T10:47:19;20.30;99.90
6333;DHT22;3199;49.102;8.856;2023-10-19T10:49:58;20.20;99.90
6333;DHT22;3199;49.102;8.856;2023-10-19T10:52:25;20.00;99.90
6333;DHT22;3199;49.102;8.856;2023-10-19T10:54:51;19.90;99.90
6333;DHT22;3199;49.102;8.856;2023-10-19T10:57:18;19.70;99.90
6333;DHT22;3199;49.102;8.856;2023-10-19T10:59:45;19.70;99.90
6333;DHT22;3199;49.102;8.856;2023-10-19T11:02:18;19.50;99.90
6333;DHT22;3199;49.102;8.856;2023-10-19T11:04:45;19.40;99.90
6333;DHT22;3199;49.102;8.856;2023-10-19T11:07:17;19.20;99.90
6333;DHT22;3199;49.102;8.856;2023-10-19T11:09:45;19.10;99.90
6333;DHT22;3199;49.102;8.856;2023-10-19T11:12:12;19.00;99.90
6333;DHT22;3199;49.102;8.856;2023-10-19T11:14:50;18.90;99.90
6333;DHT22;3199;49.102;8.856;2023-10-19T11:17:16;18.80;99.90
6333;DHT22;3199;49.102;8.856;2023-10-19T11:19:42;18.80;99.90
6333;DHT22;3199;49.102;8.856;2023-10-19T11:22:10;18.80;99.90
6333;DHT22;3199;49.102;8.856;2023-10-19T11:24:35;18.70;99.90
6333;DHT22;3199;49.102;8.856;2023-10-19T11:27:05;18.70;99.90
6333;DHT22;3199;49.102;8.856;2023-10-19T11:29:33;18.70;99.90
6333;DHT22;3199;49.102;8.856;2023-10-19T11:32:02;18.60;99.90
6333;DHT22;3199;49.102;8.856;2023-10-19T11:34:28;18.60;99.90
6333;DHT22;3199;49.102;8.856;2023-10-19T11:36:56;18.40;99.90
6333;DHT22;3199;49.102;8.856;2023-10-19T11:39:23;18.30;99.90
6333;DHT22;3199;49.102;8.856;2023-10-19T11:41:51;18.20;99.90
6333;DHT22;3199;49.102;8.856;2023-10-19T11:44:18;18.00;99.90
6333;DHT22;3199;49.102;8.856;2023-10-19T11:46:45;18.00;99.90
6333;DHT22;3199;49.102;8.856;2023-10-19T11:49:10;17.90;99.90
6333;DHT22;3199;49.102;8.856;2023-10-19T11:51:37;17.90;99.90
6333;DHT22;3199;49.102;8.856;2023-10-19T11:54:04;17.90;99.90
6333;DHT22;3199;49.102;8.856;2023-10-19T11:56:31;17.90;99.90
6333;DHT22;3199;49.102;8.856;2023-10-19T11:58:57;17.80;99.90
6333;DHT22;3199;49.102;8.856;2023-10-19T12:01:23;17.80;99.90
6333;DHT22;3199;49.102;8.856;2023-10-19T12:03:50;17.80;99.90
6333;DHT22;3199;49.102;8.856;2023-10-19T12:06:16;17.70;99.90
6333;DHT22;3199;49.102;8.856;2023-10-19T12:08:45;17.80;99.90
6333;DHT22;3199;49.102;8.856;2023-10-19T12:11:10;17.70;99.90
6333;DHT22;3199;49.102;8.856;2023-10-19T12:13:44;17.60;99.90
6333;DHT22;3199;49.102;8.856;2023-10-19T12:16:11;17.60;99.90
6333;DHT22;3199;49.102;8.856;2023-10-19T12:18:39;17.50;99.90
6333;DHT22;3199;49.102;8.856;2023-10-19T12:21:04;17.40;99.90
6333;DHT22;3199;49.102;8.856;2023-10-19T12:23:33;17.30;99.90
6333;DHT22;3199;49.102;8.856;2023-10-19T12:26:00;17.30;99.90
6333;DHT22;3199;49.102;8.856;2023-10-19T12:28:37;17.20;99.90
6333;DHT22;3199;49.102;8.856;2023-10-19T12:31:03;17.20;99.90
6333;DHT22;3199;49.102;8.856;2023-10-19T12:33:30;17.10;99.90
6333;DHT22;3199;49.102;8.856;2023-10-19T12:35:56;17.00;99.90
6333;DHT22;3199;49.102;8.856;2023-10-19T12:38:24;17.00;99.90
6333;DHT22;3199;49.102;8.856;2023-10-19T12:40:51;17.00;99.90
6333;DHT22;3199;49.102;8.856;2023-10-19T12:43:17;17.00;99.90
6333;DHT22;3199;49.102;8.856;2023-10-19T12:45:44;17.00;99.90
6333;DHT22;3199;49.102;8.856;2023-10-19T12:48:16;16.90;99.90
6333;DHT22;3199;49.102;8.856;2023-10-19T12:50:43;17.00;99.90
6333;DHT22;3199;49.102;8.856;2023-10-19T12:53:09;17.00;99.90
6333;DHT22;3199;49.102;8.856;2023-10-19T12:55:35;17.10;99.90
6333;DHT22;3199;49.102;8.856;2023-10-19T12:58:03;17.10;99.90
6333;DHT22;3199;49.102;8.856;2023-10-19T13:00:33;17.20;99.90
6333;DHT22;3199;49.102;8.856;2023-10-19T13:03:07;17.20;99.90
6333;DHT22;3199;49.102;8.856;2023-10-19T13:08:00;17.30;99.90
6333;DHT22;3199;49.102;8.856;2023-10-19T13:10:29;17.40;99.90
6333;DHT22;3199;49.102;8.856;2023-10-19T13:13:03;17.50;99.90
6333;DHT22;3199;49.102;8.856;2023-10-19T13:15:33;17.50;99.90
6333;DHT22;3199;49.102;8.856;2023-10-19T13:18:04;17.50;99.90
6333;DHT22;3199;49.102;8.856;2023-10-19T13:20:31;17.40;99.90
6333;DHT22;3199;49.102;8.856;2023-10-19T13:23:03;17.40;99.90
6333;DHT22;3199;49.102;8.856;2023-10-19T13:25:30;17.30;99.90
6333;DHT22;3199;49.102;8.856;2023-10-19T13:28:15;17.30;99.90
6333;DHT22;3199;49.102;8.856;2023-10-19T13:30:42;17.30;99.90
6333;DHT22;3199;49.102;8.856;2023-10-19T13:33:09;17.30;99.90
6333;DHT22;3199;49.102;8.856;2023-10-19T13:35:36;17.40;99.90
6333;DHT22;3199;49.102;8.856;2023-10-19T13:38:03;17.40;99.90
6333;DHT22;3199;49.102;8.856;2023-10-19T13:40:30;17.40;99.90
6333;DHT22;3199;49.102;8.856;2023-10-19T13:42:56;17.40;99.90
6333;DHT22;3199;49.102;8.856;2023-10-19T13:45:22;17.40;99.90
6333;DHT22;3199;49.102;8.856;2023-10-19T13:47:48;17.30;99.90
6333;DHT22;3199;49.102;8.856;2023-10-19T13:50:14;17.30;99.90
6333;DHT22;3199;49.102;8.856;2023-10-19T13:52:40;17.30;99.90
6333;DHT22;3199;49.102;8.856;2023-10-19T13:55:06;17.30;99.90
6333;DHT22;3199;49.102;8.856;2023-10-19T13:57:33;17.30;99.90
6333;DHT22;3199;49.102;8.856;2023-10-19T13:59:59;17.30;99.90
6333;DHT22;3199;49.102;8.856;2023-10-19T14:02:25;17.30;99.90
6333;DHT22;3199;49.102;8.856;2023-10-19T14:04:51;17.30;99.90
6333;DHT22;3199;49.102;8.856;2023-10-19T14:07:17;17.30;99.90
6333;DHT22;3199;49.102;8.856;2023-10-19T14:09:43;17.30;99.90
6333;DHT22;3199;49.102;8.856;2023-10-19T14:12:10;17.30;99.90
6333;DHT22;3199;49.102;8.856;2023-10-19T14:14:35;17.30;99.90
6333;DHT22;3199;49.102;8.856;2023-10-19T14:17:01;17.30;99.90
6333;DHT22;3199;49.102;8.856;2023-10-19T14:19:26;17.30;99.90
6333;DHT22;3199;49.102;8.856;2023-10-19T14:21:52;17.20;99.90
6333;DHT22;3199;49.102;8.856;2023-10-19T14:24:18;17.20;99.90
6333;DHT22;3199;49.102;8.856;2023-10-19T14:26:46;17.20;99.90
6333;DHT22;3199;49.102;8.856;2023-10-19T14:29:12;17.20;99.90
6333;DHT22;3199;49.102;8.856;2023-10-19T14:31:39;17.10;99.90
6333;DHT22;3199;49.102;8.856;2023-10-19T14:34:04;17.10;99.90
6333;DHT22;3199;49.102;8.856;2023-10-19T14:36:30;17.10;99.90
6333;DHT22;3199;49.102;8.856;2023-10-19T14:38:55;17.00;99.90
6333;DHT22;3199;49.102;8.856;2023-10-19T14:41:21;17.00;99.90
6333;DHT22;3199;49.102;8.856;2023-10-19T14:43:46;16.90;99.90
6333;DHT22;3199;49.102;8.856;2023-10-19T14:46:12;16.90;99.90
6333;DHT22;3199;49.102;8.856;2023-10-19T14:48:38;16.80;99.90
6333;DHT22;3199;49.102;8.856;2023-10-19T14:51:04;16.70;99.90
6333;DHT22;3199;49.102;8.856;2023-10-19T14:53:30;16.60;99.90
6333;DHT22;3199;49.102;8.856;2023-10-19T14:55:56;16.60;99.90
6333;DHT22;3199;49.102;8.856;2023-10-19T14:58:26;16.60;99.90
6333;DHT22;3199;49.102;8.856;2023-10-19T15:00:52;16.60;99.90
6333;DHT22;3199;49.102;8.856;2023-10-19T15:03:20;16.60;99.90
6333;DHT22;3199;49.102;8.856;2023-10-19T15:05:52;16.50;99.90
6333;DHT22;3199;49.102;8.856;2023-10-19T15:08:18;16.50;99.90
6333;DHT22;3199;49.102;8.856;2023-10-19T15:10:45;16.60;99.90
6333;DHT22;3199;49.102;8.856;2023-10-19T15:13:10;16.60;99.90
6333;DHT22;3199;49.102;8.856;2023-10-19T15:15:36;16.50;99.90
6333;DHT22;3199;49.102;8.856;2023-10-19T15:18:02;16.50;99.90
6333;DHT22;3199;49.102;8.856;2023-10-19T15:20:29;16.50;99.90
6333;DHT22;3199;49.102;8.856;2023-10-19T15:22:55;16.50;99.90
6333;DHT22;3199;49.102;8.856;2023-10-19T15:25:22;16.50;99.90
6333;DHT22;3199;49.102;8.856;2023-10-19T15:27:50;16.50;99.90
6333;DHT22;3199;49.102;8.856;2023-10-19T15:30:15;16.60;99.90
6333;DHT22;3199;49.102;8.856;2023-10-19T15:32:43;16.60;99.90
6333;DHT22;3199;49.102;8.856;2023-10-19T15:35:14;16.50;99.90
6333;DHT22;3199;49.102;8.856;2023-10-19T15:37:41;16.50;99.90
6333;DHT22;3199;49.102;8.856;2023-10-19T15:40:09;16.50;99.90
6333;DHT22;3199;49.102;8.856;2023-10-19T15:42:39;16.50;99.90
6333;DHT22;3199;49.102;8.856;2023-10-19T15:45:10;16.40;99.90
6333;DHT22;3199;49.102;8.856;2023-10-19T15:47:37;16.40;99.90
6333;DHT22;3199;49.102;8.856;2023-10-19T15:50:03;16.30;99.90
6333;DHT22;3199;49.102;8.856;2023-10-19T15:52:29;16.30;99.90
6333;DHT22;3199;49.102;8.856;2023-10-19T15:54:57;16.30;99.90
6333;DHT22;3199;49.102;8.856;2023-10-19T15:57:23;16.30;99.90
6333;DHT22;3199;49.102;8.856;2023-10-19T15:59:50;16.20;99.90
6333;DHT22;3199;49.102;8.856;2023-10-19T16:02:15;16.20;99.90
6333;DHT22;3199;49.102;8.856;2023-10-19T16:04:41;16.20;99.90
6333;DHT22;3199;49.102;8.856;2023-10-19T16:07:14;16.20;99.90
6333;DHT22;3199;49.102;8.856;2023-10-19T16:09:41;16.10;99.90
6333;DHT22;3199;49.102;8.856;2023-10-19T16:12:07;16.00;99.90
6333;DHT22;3199;49.102;8.856;2023-10-19T16:14:34;16.00;99.90